Time;durP1;ratioP1;P1;durP2;ratioP2;P2;SDS_P1;SDS_P2;PMS_P1;PMS_P2;Temp;Humidity;BMP_temperature;BMP_pressure;BME280_temperature;BME280_humidity;BME280_pressure;Samples;Min_cycle;Max_cycle;Signal;HPM_P1;HPM_P2
2023/08/26 00:02:19;;;;;;;13.35;7.18;;;29.70;49.60;;;;;;5053425;28;20146;-75
2023/08/26 00:04:46;;;;;;;6.72;5.53;;;29.60;49.70;;;;;;5053665;28;20071;-75
2023/08/26 00:07:13;;;;;;;12.68;6.65;;;29.70;49.70;;;;;;5054765;28;20131;-75
2023/08/26 00:09:39;;;;;;;12.43;6.78;;;29.80;49.70;;;;;;5054703;28;20111;-75
2023/08/26 00:12:06;;;;;;;4.63;3.88;;;29.60;49.80;;;;;;5054847;28;20120;-75
2023/08/26 00:14:32;;;;;;;11.15;5.72;;;29.70;49.80;;;;;;5054599;28;20461;-75
2023/08/26 00:16:58;;;;;;;9.73;5.53;;;29.60;49.80;;;;;;5054736;28;20382;-75
2023/08/26 00:19:24;;;;;;;11.48;6.40;;;29.60;49.90;;;;;;5054060;28;20056;-75
2023/08/26 00:21:50;;;;;;;11.85;5.18;;;29.70;49.90;;;;;;5054472;28;20033;-75
2023/08/26 00:24:19;;;;;;;8.73;4.13;;;29.80;49.90;;;;;;5054356;28;20033;-75
2023/08/26 00:26:45;;;;;;;5.80;4.07;;;29.80;49.90;;;;;;5054565;28;20029;-75
2023/08/26 00:29:11;;;;;;;5.15;4.10;;;29.60;49.90;;;;;;5054294;28;20036;-75
2023/08/26 00:31:38;;;;;;;5.80;4.53;;;29.70;50.00;;;;;;5054431;28;20052;-71
2023/08/26 00:34:04;;;;;;;5.88;4.40;;;29.80;49.80;;;;;;5053899;28;20025;-72
2023/08/26 00:36:30;;;;;;;7.05;4.72;;;29.60;49.90;;;;;;5052785;28;20392;-72
2023/08/26 00:38:57;;;;;;;5.63;3.92;;;29.80;50.00;;;;;;5053105;28;20041;-71
2023/08/26 00:41:24;;;;;;;6.53;3.67;;;29.80;50.00;;;;;;5052864;28;20032;-70
2023/08/26 00:43:50;;;;;;;5.40;3.72;;;29.70;50.00;;;;;;5053782;28;20035;-72
2023/08/26 00:46:16;;;;;;;5.47;3.60;;;29.80;50.10;;;;;;5053697;28;20400;-72
2023/08/26 00:48:43;;;;;;;6.03;4.03;;;29.80;50.10;;;;;;5051529;28;20033;-72
2023/08/26 00:51:10;;;;;;;4.22;3.80;;;29.80;50.20;;;;;;5051522;28;20503;-71
2023/08/26 00:53:37;;;;;;;4.53;3.72;;;29.60;50.20;;;;;;5051310;28;20044;-72
2023/08/26 00:56:04;;;;;;;4.30;3.70;;;29.70;50.20;;;;;;5051314;28;20369;-71
2023/08/26 00:58:32;;;;;;;4.88;3.67;;;29.70;50.20;;;;;;5051379;28;20472;-71
2023/08/26 01:01:00;;;;;;;5.75;3.63;;;29.70;50.20;;;;;;5051239;28;20338;-72
2023/08/26 01:03:26;;;;;;;4.88;3.70;;;29.60;50.20;;;;;;5051076;28;20115;-71
2023/08/26 01:05:52;;;;;;;4.85;4.10;;;29.80;50.10;;;;;;5052240;28;20037;-71
2023/08/26 01:08:18;;;;;;;6.13;4.35;;;29.70;50.10;;;;;;5052447;28;20037;-71
2023/08/26 01:11:07;;;;;;;6.40;4.55;;;29.70;50.20;;;;;;5052274;28;20033;-72
2023/08/26 01:14:00;;;;;;;4.78;3.75;;;29.60;50.10;;;;;;5050903;28;20274;-72
2023/08/26 01:16:27;;;;;;;5.20;4.32;;;29.70;50.00;;;;;;5034403;28;20093;-72
2023/08/26 01:18:54;;;;;;;6.00;4.03;;;29.70;50.00;;;;;;5051101;28;20089;-71
2023/08/26 01:21:25;;;;;;;4.70;3.35;;;29.60;50.20;;;;;;5053101;28;20029;-72
2023/08/26 01:23:52;;;;;;;6.30;4.28;;;29.70;50.30;;;;;;5052147;28;20043;-71
2023/08/26 01:26:18;;;;;;;6.28;4.00;;;29.50;50.30;;;;;;5050782;28;20032;-72
2023/08/26 01:28:44;;;;;;;7.82;4.05;;;29.50;50.40;;;;;;5052002;28;20036;-71
2023/08/26 01:31:13;;;;;;;4.63;3.92;;;29.70;50.40;;;;;;5034286;28;20362;-71
2023/08/26 01:33:59;;;;;;;7.18;4.18;;;29.70;50.40;;;;;;5051986;28;20033;-71
2023/08/26 01:36:27;;;;;;;4.82;4.20;;;29.50;50.40;;;;;;5051967;28;20037;-71
2023/08/26 01:38:56;;;;;;;8.20;5.57;;;29.60;50.50;;;;;;5051980;28;20112;-71
2023/08/26 01:41:22;;;;;;;11.57;6.65;;;29.70;50.50;;;;;;5050852;28;20070;-72
2023/08/26 01:43:51;;;;;;;11.85;6.80;;;29.50;50.50;;;;;;5050430;28;20040;-71
2023/08/26 01:46:17;;;;;;;7.30;4.65;;;29.70;50.50;;;;;;5004154;28;1329444;-71
2023/08/26 01:48:43;;;;;;;5.13;3.60;;;29.70;50.50;;;;;;5052465;28;20043;-71
2023/08/26 01:51:12;;;;;;;5.38;3.75;;;29.60;50.50;;;;;;5051469;28;20040;-72
2023/08/26 01:53:40;;;;;;;7.82;4.43;;;29.60;50.60;;;;;;5051514;28;20045;-71
2023/08/26 01:56:06;;;;;;;4.95;4.22;;;29.60;50.60;;;;;;5051525;28;20043;-72
2023/08/26 01:58:32;;;;;;;5.40;4.15;;;29.70;50.60;;;;;;5051243;28;20461;-71
2023/08/26 02:01:04;;;;;;;4.88;3.65;;;29.60;50.60;;;;;;5067103;28;20131;-72
2023/08/26 02:03:30;;;;;;;5.63;3.70;;;29.60;50.60;;;;;;5051037;28;20029;-72
2023/08/26 02:05:57;;;;;;;6.22;3.83;;;29.80;50.60;;;;;;5051339;28;20060;-72
2023/08/26 02:08:23;;;;;;;4.75;3.90;;;29.60;50.60;;;;;;5051292;28;20751;-72
2023/08/26 02:10:56;;;;;;;5.47;4.22;;;29.60;50.70;;;;;;5051002;28;20063;-72
2023/08/26 02:13:24;;;;;;;6.30;4.60;;;29.70;50.60;;;;;;5052132;28;20097;-71
2023/08/26 02:15:50;;;;;;;6.65;4.40;;;29.70;50.60;;;;;;5050782;28;20392;-71
2023/08/26 02:18:16;;;;;;;4.80;3.65;;;29.60;50.60;;;;;;5051491;28;20033;-71
2023/08/26 02:20:43;;;;;;;9.68;4.25;;;29.80;50.60;;;;;;5052435;28;20029;-71
2023/08/26 02:23:12;;;;;;;4.53;4.10;;;29.60;50.60;;;;;;5050690;28;20033;-71
2023/08/26 02:25:39;;;;;;;5.03;4.25;;;29.70;50.60;;;;;;5050816;28;20037;-71
2023/08/26 02:28:05;;;;;;;5.25;4.47;;;29.50;50.60;;;;;;5051962;28;20029;-71
2023/08/26 02:30:31;;;;;;;4.93;3.78;;;29.60;50.60;;;;;;5051879;28;20025;-72
2023/08/26 02:32:58;;;;;;;5.65;4.25;;;29.60;50.60;;;;;;5051655;28;20037;-71
2023/08/26 02:35:25;;;;;;;5.15;4.05;;;29.60;50.40;;;;;;5050941;28;20032;-71
2023/08/26 02:37:51;;;;;;;5.25;4.25;;;29.60;50.40;;;;;;5050437;28;20359;-72
2023/08/26 02:40:18;;;;;;;5.47;4.05;;;29.60;50.60;;;;;;5034003;28;20040;-72
2023/08/26 02:42:45;;;;;;;5.63;4.47;;;29.40;50.70;;;;;;5029247;28;20500;-72
2023/08/26 02:45:11;;;;;;;5.88;4.32;;;29.60;50.80;;;;;;5012657;28;20049;-72
2023/08/26 02:47:38;;;;;;;6.43;4.05;;;29.70;50.80;;;;;;5012620;28;20056;-72
2023/08/26 02:50:04;;;;;;;5.63;3.95;;;29.60;50.80;;;;;;5012975;28;20037;-72
2023/08/26 02:52:31;;;;;;;4.90;3.88;;;29.60;50.80;;;;;;5012658;28;20110;-72
2023/08/26 02:54:56;;;;;;;4.47;3.92;;;29.50;50.90;;;;;;5012539;28;20080;-72
2023/08/26 02:57:22;;;;;;;5.65;4.38;;;29.40;50.90;;;;;;5012489;28;20049;-72
2023/08/26 02:59:50;;;;;;;4.45;3.85;;;29.60;50.90;;;;;;5029139;28;20635;-72
2023/08/26 03:02:16;;;;;;;5.22;4.40;;;29.70;50.90;;;;;;5012654;28;20034;-72
2023/08/26 03:04:43;;;;;;;6.32;4.15;;;29.60;50.90;;;;;;4996091;28;20445;-71
2023/08/26 03:07:09;;;;;;;5.63;4.25;;;29.50;50.90;;;;;;5012670;28;20044;-71
2023/08/26 03:09:35;;;;;;;8.07;4.85;;;29.60;50.90;;;;;;5028599;28;20082;-72
2023/08/26 03:12:02;;;;;;;4.82;3.95;;;29.50;50.90;;;;;;5028994;28;20060;-72
2023/08/26 03:14:28;;;;;;;6.25;4.07;;;29.70;50.90;;;;;;4995207;28;20175;-71
2023/08/26 03:16:54;;;;;;;5.47;4.25;;;29.50;50.90;;;;;;5048743;28;20603;-72
2023/08/26 03:19:21;;;;;;;4.82;4.32;;;29.70;51.00;;;;;;5032076;28;20120;-71
2023/08/26 03:21:48;;;;;;;6.35;4.53;;;29.60;51.00;;;;;;5048847;28;20126;-72
2023/08/26 03:24:17;;;;;;;4.97;4.22;;;29.50;51.00;;;;;;5048535;28;20674;-71
2023/08/26 03:26:44;;;;;;;11.10;6.90;;;29.60;51.00;;;;;;5032052;28;20037;-71
2023/08/26 03:29:10;;;;;;;10.60;6.00;;;29.60;50.90;;;;;;5036652;28;20464;-71
2023/08/26 03:31:36;;;;;;;5.70;4.47;;;29.60;50.90;;;;;;5068646;28;20037;-71
2023/08/26 03:34:03;;;;;;;7.20;4.00;;;29.60;50.90;;;;;;5051664;28;20079;-71
2023/08/26 03:36:29;;;;;;;5.30;4.15;;;29.60;50.90;;;;;;5051785;28;20033;-71
2023/08/26 03:38:56;;;;;;;4.18;3.78;;;29.60;50.90;;;;;;5068483;28;20123;-72
2023/08/26 03:41:23;;;;;;;7.78;4.68;;;29.60;50.90;;;;;;5065942;28;20078;-69
2023/08/26 03:43:49;;;;;;;5.28;4.20;;;29.50;50.90;;;;;;5069647;28;20051;-70
2023/08/26 03:46:15;;;;;;;8.95;5.22;;;29.40;50.80;;;;;;5056420;28;20033;-70
2023/08/26 03:48:41;;;;;;;9.07;5.85;;;29.50;50.50;;;;;;5049394;28;20044;-70
2023/08/26 03:51:07;;;;;;;7.63;5.45;;;29.50;50.40;;;;;;5050992;28;20033;-70
2023/08/26 03:53:34;;;;;;;8.80;5.88;;;29.40;49.90;;;;;;5049529;28;20503;-69
2023/08/26 03:56:01;;;;;;;9.63;6.20;;;29.50;49.90;;;;;;5049501;28;20107;-70
2023/08/26 03:58:27;;;;;;;8.18;5.88;;;29.40;49.90;;;;;;5050653;28;20052;-70
2023/08/26 04:01:01;;;;;;;11.93;6.55;;;29.40;49.70;;;;;;5049591;28;20488;-70
2023/08/26 04:03:27;;;;;;;8.30;5.97;;;29.40;49.60;;;;;;5049370;28;20052;-69
2023/08/26 04:06:04;;;;;;;9.23;6.22;;;29.40;49.40;;;;;;5032690;28;20039;-68
2023/08/26 04:08:32;;;;;;;9.85;6.97;;;29.50;51.00;;;;;;5032488;28;20033;-68
2023/08/26 04:10:59;;;;;;;12.95;7.45;;;29.80;53.10;;;;;;5049529;28;20132;-69
2023/08/26 04:13:28;;;;;;;16.02;7.50;;;30.00;54.70;;;;;;5049466;28;20071;-70
2023/08/26 04:16:01;;;;;;;11.40;7.80;;;30.00;57.40;;;;;;5049442;28;20509;-69
2023/08/26 04:18:29;;;;;;;11.10;7.22;;;30.10;54.50;;;;;;5048978;28;20087;-69
2023/08/26 04:20:56;;;;;;;12.52;7.65;;;30.00;52.10;;;;;;5049365;28;20072;-68
2023/08/26 04:23:32;;;;;;;14.07;6.82;;;29.90;51.20;;;;;;5048984;28;20453;-68
2023/08/26 04:26:00;;;;;;;8.88;6.25;;;30.00;51.30;;;;;;5049402;28;20079;-68
2023/08/26 04:28:27;;;;;;;9.18;6.13;;;29.80;50.80;;;;;;5050653;28;20033;-68
2023/08/26 04:30:53;;;;;;;12.82;5.78;;;29.70;50.80;;;;;;5049332;28;20041;-69
2023/08/26 04:33:20;;;;;;;8.80;5.57;;;29.80;50.80;;;;;;5050392;28;20037;-69
2023/08/26 04:35:46;;;;;;;9.38;6.75;;;29.70;50.90;;;;;;5049108;28;20128;-68
2023/08/26 04:38:15;;;;;;;8.63;6.53;;;29.70;51.20;;;;;;5048881;28;20059;-68
2023/08/26 04:40:41;;;;;;;9.32;5.93;;;29.80;51.30;;;;;;5051139;28;20037;-68
2023/08/26 04:43:10;;;;;;;8.60;5.35;;;29.80;51.50;;;;;;5071498;28;20175;-69
2023/08/26 04:45:37;;;;;;;8.43;6.07;;;29.70;51.60;;;;;;5054860;28;20075;-70
2023/08/26 04:48:05;;;;;;;12.00;6.45;;;29.80;51.70;;;;;;5054450;28;20040;-70
2023/08/26 04:50:33;;;;;;;10.25;6.60;;;29.70;51.20;;;;;;5054614;28;20045;-70
2023/08/26 04:52:59;;;;;;;14.50;6.90;;;29.70;50.60;;;;;;5071366;28;20041;-70
2023/08/26 04:55:25;;;;;;;13.02;6.53;;;29.70;49.90;;;;;;5054818;28;20047;-71
2023/08/26 04:57:51;;;;;;;14.93;9.07;;;29.70;49.50;;;;;;5071336;28;20404;-68
2023/08/26 05:00:17;;;;;;;10.48;8.02;;;29.80;48.80;;;;;;5054451;28;20488;-69
2023/08/26 05:02:44;;;;;;;8.90;7.47;;;29.80;51.40;;;;;;5071150;28;20044;-69
2023/08/26 05:05:10;;;;;;;12.63;7.22;;;29.90;52.30;;;;;;5071250;28;20035;-69
2023/08/26 05:07:36;;;;;;;17.13;8.75;;;30.10;53.40;;;;;;5054321;28;20063;-67
2023/08/26 05:10:03;;;;;;;16.52;8.57;;;30.10;50.80;;;;;;5071109;28;20142;-68
2023/08/26 05:12:32;;;;;;;16.90;9.23;;;29.90;49.80;;;;;;5054416;28;20051;-67
2023/08/26 05:14:58;;;;;;;18.58;9.80;;;30.10;50.50;;;;;;5051350;28;20033;-67
2023/08/26 05:17:24;;;;;;;14.63;8.68;;;30.00;50.40;;;;;;5053216;28;20063;-67
2023/08/26 05:19:51;;;;;;;13.60;8.15;;;30.00;50.40;;;;;;5052070;28;20033;-67
2023/08/26 05:22:17;;;;;;;13.82;8.23;;;30.10;50.60;;;;;;5052260;28;20476;-67
2023/08/26 05:24:43;;;;;;;18.20;8.73;;;29.90;50.20;;;;;;5052240;28;20091;-67
2023/08/26 05:27:10;;;;;;;14.25;8.05;;;29.90;49.40;;;;;;5052179;28;20464;-68
2023/08/26 05:29:36;;;;;;;12.25;7.28;;;29.90;50.30;;;;;;5051829;28;20047;-67
2023/08/26 05:32:02;;;;;;;14.88;7.18;;;30.00;50.50;;;;;;5035382;28;20115;-68
2023/08/26 05:34:28;;;;;;;10.85;6.78;;;29.90;49.70;;;;;;5051720;28;20029;-67
2023/08/26 05:36:54;;;;;;;13.82;6.90;;;30.00;50.20;;;;;;5066860;28;20044;-69
2023/08/26 05:39:20;;;;;;;11.13;7.43;;;30.00;50.30;;;;;;5071457;28;20075;-69
2023/08/26 05:41:46;;;;;;;11.07;7.10;;;29.90;49.70;;;;;;5071736;28;20055;-68
2023/08/26 05:44:12;;;;;;;11.38;7.40;;;29.90;50.10;;;;;;5071550;28;20032;-67
2023/08/26 05:46:38;;;;;;;13.63;6.82;;;30.00;50.80;;;;;;5064793;28;20052;-69
2023/08/26 05:49:04;;;;;;;12.60;6.55;;;30.00;51.40;;;;;;5051640;28;20036;-69
2023/08/26 05:51:30;;;;;;;9.10;6.70;;;30.00;51.30;;;;;;5051526;28;20045;-71
2023/08/26 05:53:58;;;;;;;11.02;6.78;;;30.00;51.10;;;;;;5051535;28;20401;-69
2023/08/26 05:56:24;;;;;;;14.18;7.50;;;30.00;50.30;;;;;;5034442;28;20075;-69
2023/08/26 05:58:50;;;;;;;9.23;6.55;;;30.00;50.10;;;;;;5051066;28;20407;-69
2023/08/26 06:01:16;;;;;;;8.85;6.35;;;30.00;50.50;;;;;;5052800;28;20077;-68
2023/08/26 06:03:42;;;;;;;9.88;6.60;;;30.00;50.20;;;;;;5051289;28;20108;-70
2023/08/26 06:06:08;;;;;;;7.55;5.78;;;30.00;50.60;;;;;;5052605;28;20120;-70
2023/08/26 06:08:34;;;;;;;8.95;6.63;;;29.90;49.70;;;;;;5052688;28;20029;-70
2023/08/26 06:11:00;;;;;;;10.93;6.78;;;30.00;48.80;;;;;;5052597;28;20052;-71
2023/08/26 06:13:26;;;;;;;72.28;21.17;;;30.00;49.70;;;;;;5034681;28;20048;-70
2023/08/26 06:15:56;;;;;;;238.77;65.70;;;30.30;51.70;;;;;;5049628;28;20052;-70
2023/08/26 06:18:23;;;;;;;124.72;39.17;;;30.60;54.40;;;;;;5033024;28;20095;-70
2023/08/26 06:20:53;;;;;;;19.63;11.73;;;30.80;55.00;;;;;;5049898;28;20077;-70
2023/08/26 06:23:22;;;;;;;24.52;8.90;;;30.80;46.50;;;;;;5049631;28;20041;-69
2023/08/26 06:25:56;;;;;;;26.65;10.02;;;30.60;46.40;;;;;;5033122;28;20087;-69
2023/08/26 06:28:25;;;;;;;23.08;8.07;;;30.50;54.70;;;;;;5049050;28;20049;-69
2023/08/26 06:30:56;;;;;;;20.05;9.30;;;30.60;49.10;;;;;;5033119;28;20124;-70
2023/08/26 06:33:22;;;;;;;26.80;8.77;;;30.50;48.00;;;;;;5049574;28;20068;-69
2023/08/26 06:35:49;;;;;;;22.80;9.10;;;30.50;49.40;;;;;;5032997;28;20082;-71
2023/08/26 06:38:15;;;;;;;28.35;11.10;;;30.50;50.80;;;;;;5049153;28;20132;-70
2023/08/26 06:40:41;;;;;;;25.70;10.60;;;30.40;50.20;;;;;;5049271;28;20099;-69
2023/08/26 06:43:07;;;;;;;15.52;7.57;;;30.50;58.20;;;;;;5032717;28;20032;-70
2023/08/26 06:45:35;;;;;;;34.75;10.88;;;30.40;49.20;;;;;;5032507;28;20041;-71
2023/08/26 06:48:04;;;;;;;31.48;12.77;;;30.40;50.00;;;;;;5032383;28;20049;-70
2023/08/26 06:50:31;;;;;;;24.33;9.68;;;30.40;51.80;;;;;;5032385;28;20433;-70
2023/08/26 06:52:57;;;;;;;18.25;8.48;;;30.40;50.50;;;;;;5050044;28;20075;-70
2023/08/26 06:55:23;;;;;;;10.68;7.35;;;30.50;53.50;;;;;;5050396;28;20057;-70
2023/08/26 06:57:49;;;;;;;10.43;6.32;;;30.40;49.00;;;;;;5051920;28;20047;-70
2023/08/26 07:00:16;;;;;;;11.45;6.70;;;30.30;48.00;;;;;;5051324;28;20473;-69
2023/08/26 07:02:42;;;;;;;10.55;5.78;;;30.40;49.00;;;;;;5049906;28;20067;-69
2023/08/26 07:05:08;;;;;;;8.35;6.18;;;30.40;48.90;;;;;;5050468;28;20060;-68
2023/08/26 07:07:36;;;;;;;15.82;6.07;;;30.40;48.90;;;;;;5050026;28;20029;-69
2023/08/26 07:10:03;;;;;;;9.27;5.55;;;30.30;49.00;;;;;;5051040;28;20484;-69
2023/08/26 07:12:30;;;;;;;11.30;6.68;;;30.10;52.10;;;;;;5051302;28;20025;-70
2023/08/26 07:14:56;;;;;;;15.50;7.30;;;30.20;51.70;;;;;;5050006;28;20079;-69
2023/08/26 07:17:22;;;;;;;12.25;6.95;;;30.20;51.20;;;;;;5049998;28;20220;-70
2023/08/26 07:19:49;;;;;;;11.85;6.15;;;30.40;50.70;;;;;;5051216;28;20029;-70
2023/08/26 07:22:14;;;;;;;12.68;6.00;;;30.20;50.50;;;;;;5051124;28;20025;-69
2023/08/26 07:24:40;;;;;;;6.50;5.25;;;30.30;50.20;;;;;;5050227;28;20037;-70
2023/08/26 07:27:06;;;;;;;10.50;5.57;;;30.20;49.80;;;;;;5051143;28;20074;-70
2023/08/26 07:29:34;;;;;;;8.88;5.57;;;30.20;49.60;;;;;;5050917;28;20048;-68
2023/08/26 07:32:00;;;;;;;12.43;5.30;;;30.50;49.20;;;;;;5058386;28;20035;-69
2023/08/26 07:34:30;;;;;;;10.93;7.18;;;30.40;49.10;;;;;;5069718;28;20085;-69
2023/08/26 07:36:57;;;;;;;7.07;5.35;;;30.40;48.90;;;;;;5069528;28;20085;-69
2023/08/26 07:39:24;;;;;;;9.02;5.38;;;30.40;48.90;;;;;;5071007;28;20037;-70
2023/08/26 07:41:50;;;;;;;8.07;5.43;;;30.40;48.90;;;;;;5071086;28;20028;-69
2023/08/26 07:44:17;;;;;;;10.60;5.60;;;30.50;48.70;;;;;;5069594;28;20602;-68
2023/08/26 07:46:43;;;;;;;9.63;5.60;;;30.50;48.80;;;;;;5070823;28;20055;-70
2023/08/26 07:49:09;;;;;;;5.85;5.18;;;30.20;48.90;;;;;;5069060;28;20037;-69
2023/08/26 07:51:35;;;;;;;5.65;4.88;;;30.30;49.00;;;;;;5070981;28;20032;-68
2023/08/26 07:54:01;;;;;;;8.73;5.28;;;30.50;48.90;;;;;;5070741;28;20035;-70
2023/08/26 07:56:27;;;;;;;9.30;5.22;;;30.40;49.20;;;;;;5053766;28;20127;-69
2023/08/26 07:58:53;;;;;;;9.95;5.82;;;30.40;49.40;;;;;;5050624;28;20112;-69
2023/08/26 08:01:19;;;;;;;6.82;5.93;;;30.40;49.30;;;;;;5050825;28;20110;-69
2023/08/26 08:03:45;;;;;;;8.85;5.05;;;30.40;49.20;;;;;;5050726;28;20088;-68
2023/08/26 08:06:10;;;;;;;5.68;5.05;;;30.40;49.40;;;;;;5050412;28;20147;-70
2023/08/26 08:08:37;;;;;;;6.90;5.30;;;30.50;49.50;;;;;;5050732;28;20104;-68
2023/08/26 08:11:03;;;;;;;8.65;4.97;;;30.40;49.50;;;;;;5049392;28;20040;-69
2023/08/26 08:13:29;;;;;;;9.88;5.32;;;30.40;49.60;;;;;;5050468;28;20110;-68
2023/08/26 08:15:55;;;;;;;6.22;4.63;;;30.40;49.80;;;;;;5053223;28;20429;-69
2023/08/26 08:18:21;;;;;;;6.95;5.40;;;30.40;50.00;;;;;;5054559;28;20029;-70
2023/08/26 08:20:47;;;;;;;7.15;4.65;;;30.40;50.30;;;;;;5054469;28;20480;-69
2023/08/26 08:23:13;;;;;;;6.00;4.78;;;30.30;50.30;;;;;;5053393;28;20104;-70
2023/08/26 08:25:39;;;;;;;7.90;4.90;;;30.40;49.50;;;;;;5054500;28;20040;-70
2023/08/26 08:28:06;;;;;;;6.40;4.65;;;30.40;48.70;;;;;;5054085;28;20033;-70
2023/08/26 08:30:32;;;;;;;6.65;4.75;;;30.40;47.90;;;;;;5054136;28;20033;-69
2023/08/26 08:32:58;;;;;;;9.30;4.57;;;30.30;47.40;;;;;;5054241;28;20029;-70
2023/08/26 08:35:24;;;;;;;6.35;4.93;;;30.30;46.90;;;;;;5053920;28;20025;-71
2023/08/26 08:37:50;;;;;;;5.00;4.50;;;30.50;46.50;;;;;;5053778;28;20041;-69
2023/08/26 08:40:16;;;;;;;6.10;5.05;;;30.30;46.10;;;;;;5054330;28;20090;-69
2023/08/26 08:42:44;;;;;;;6.82;4.75;;;30.30;45.90;;;;;;5053895;28;20045;-68
2023/08/26 08:45:12;;;;;;;7.65;4.82;;;30.40;46.60;;;;;;5053944;28;20466;-70
2023/08/26 08:47:38;;;;;;;9.27;6.55;;;30.40;48.60;;;;;;5053939;28;20060;-70
2023/08/26 08:50:05;;;;;;;6.20;5.10;;;30.60;47.80;;;;;;5054079;28;20052;-70
2023/08/26 08:52:32;;;;;;;11.70;5.47;;;30.50;47.30;;;;;;5052758;28;20086;-69
2023/08/26 08:54:58;;;;;;;8.27;6.25;;;30.40;46.70;;;;;;5053980;28;20037;-70
2023/08/26 08:57:31;;;;;;;8.90;6.25;;;30.50;46.90;;;;;;5054011;28;20065;-69
2023/08/26 08:59:57;;;;;;;;;;;30.50;46.70;;;;;;5054214;28;20041;-72
2023/08/26 09:02:26;;;;;;;5.68;4.85;;;30.50;46.70;;;;;;5053836;28;19908;-69
2023/08/26 09:04:52;;;;;;;8.40;5.30;;;30.40;46.70;;;;;;5053850;28;20033;-69
2023/08/26 09:07:20;;;;;;;6.53;5.13;;;30.50;46.60;;;;;;5053952;28;20029;-69
2023/08/26 09:09:46;;;;;;;6.03;4.68;;;30.50;46.90;;;;;;5053628;28;20115;-69
2023/08/26 09:12:12;;;;;;;7.35;4.47;;;30.30;47.10;;;;;;5053643;28;20163;-71
2023/08/26 09:14:38;;;;;;;7.85;5.05;;;30.40;47.30;;;;;;5052318;28;20373;-72
2023/08/26 09:17:18;;;;;;;6.13;4.32;;;30.50;47.50;;;;;;5052462;28;20041;-71
2023/08/26 09:19:55;;;;;;;10.18;4.88;;;30.40;47.70;;;;;;5053419;28;20040;-71
2023/08/26 09:22:31;;;;;;;6.47;5.07;;;30.40;47.70;;;;;;5053435;28;20382;-73
2023/08/26 09:24:59;;;;;;;6.32;4.15;;;30.50;47.80;;;;;;5051237;28;20056;-71
2023/08/26 09:27:25;;;;;;;7.63;5.05;;;30.30;48.00;;;;;;5051690;28;20488;-73
2023/08/26 09:29:52;;;;;;;5.82;4.53;;;30.50;48.00;;;;;;5053138;28;20037;-72
2023/08/26 09:32:35;;;;;;;8.77;5.38;;;30.60;48.20;;;;;;5053058;28;20086;-71
2023/08/26 09:35:11;;;;;;;;;;;30.40;48.20;;;;;;5033771;28;20042;-68
2023/08/26 09:37:38;;;;;;;5.22;4.53;;;30.50;48.10;;;;;;5033052;28;20407;-70
2023/08/26 09:40:05;;;;;;;4.60;4.20;;;30.30;48.20;;;;;;5033078;28;20033;-69
2023/08/26 09:42:32;;;;;;;6.65;4.80;;;30.40;48.60;;;;;;5033115;28;20324;-70
2023/08/26 09:44:58;;;;;;;6.85;4.90;;;30.40;48.80;;;;;;5032947;28;20519;-68
2023/08/26 09:47:30;;;;;;;7.90;4.32;;;30.40;49.10;;;;;;5040144;28;20044;-68
2023/08/26 09:49:56;;;;;;;6.53;3.85;;;30.40;49.20;;;;;;5052820;28;20090;-69
2023/08/26 09:52:23;;;;;;;7.07;4.28;;;30.50;49.90;;;;;;5052717;28;20119;-70
2023/08/26 09:54:51;;;;;;;5.72;3.95;;;30.60;50.50;;;;;;5053155;28;20056;-69
2023/08/26 09:57:17;;;;;;;5.40;3.90;;;30.40;50.60;;;;;;5052523;28;20457;-69
2023/08/26 09:59:43;;;;;;;6.80;4.00;;;30.40;50.50;;;;;;5050378;28;20052;-69
2023/08/26 10:02:23;;;;;;;65.57;53.30;;;30.40;50.30;;;;;;5052462;28;20459;-69
2023/08/26 10:04:56;;;;;;;12.70;8.00;;;30.50;50.50;;;;;;5052644;28;20063;-70
2023/08/26 10:07:28;;;;;;;8.20;5.32;;;30.50;53.80;;;;;;5052715;28;20040;-72
2023/08/26 10:09:57;;;;;;;5.57;4.82;;;30.60;56.20;;;;;;5052368;28;20749;-73
2023/08/26 10:12:35;;;;;;;8.25;4.80;;;30.60;57.60;;;;;;5052740;28;20041;-71
2023/08/26 10:15:02;;;;;;;6.05;5.03;;;30.80;58.80;;;;;;5052486;28;20118;-71
2023/08/26 10:17:31;;;;;;;13.20;5.55;;;30.80;57.40;;;;;;5069562;28;20381;-70
2023/08/26 10:19:58;;;;;;;22.80;7.43;;;30.80;56.50;;;;;;5069627;28;20044;-70
2023/08/26 10:22:24;;;;;;;8.60;5.15;;;31.20;59.70;;;;;;5052918;28;20033;-69
2023/08/26 10:24:50;;;;;;;7.68;4.90;;;31.40;55.80;;;;;;5069573;28;20040;-70
2023/08/26 10:27:18;;;;;;;6.20;4.60;;;31.30;53.80;;;;;;5069533;28;20189;-69
2023/08/26 10:29:45;;;;;;;8.45;5.53;;;31.20;52.90;;;;;;5069329;28;20075;-70
2023/08/26 10:32:17;;;;;;;15.10;6.63;;;31.00;52.20;;;;;;5069239;28;20045;-70
2023/08/26 10:34:53;;;;;;;9.52;5.90;;;31.00;52.30;;;;;;5069731;28;20521;-69
2023/08/26 10:37:29;;;;;;;9.68;4.72;;;31.00;53.50;;;;;;5068773;28;20148;-72
2023/08/26 10:39:56;;;;;;;5.75;4.65;;;31.00;52.80;;;;;;5069526;28;20101;-69
2023/08/26 10:42:23;;;;;;;10.70;4.65;;;31.00;52.60;;;;;;5069126;28;20036;-70
2023/08/26 10:44:55;;;;;;;7.05;4.75;;;31.10;52.30;;;;;;5069412;28;20129;-70
2023/08/26 10:47:38;;;;;;;6.50;3.78;;;31.10;52.10;;;;;;5068464;28;20056;-71
2023/08/26 10:50:14;;;;;;;7.43;4.80;;;31.00;51.90;;;;;;5049550;28;20068;-71
2023/08/26 10:52:44;;;;;;;7.22;4.22;;;31.10;52.10;;;;;;5051708;28;20135;-70
2023/08/26 10:55:21;;;;;;;9.00;4.85;;;31.00;52.10;;;;;;5052119;28;20115;-70
2023/08/26 10:58:20;;;;;;;6.55;4.07;;;31.10;52.00;;;;;;5051750;28;20037;-69
2023/08/26 11:00:51;;;;;;;6.65;3.60;;;31.00;52.00;;;;;;5009256;28;20088;-70
2023/08/26 11:03:25;;;;;;;3.95;3.42;;;31.10;52.00;;;;;;5009628;28;20453;-69
2023/08/26 11:06:05;;;;;;;7.63;5.15;;;31.00;51.70;;;;;;4993214;28;20104;-71
2023/08/26 11:08:32;;;;;;;5.88;3.88;;;30.90;50.60;;;;;;5009445;28;20493;-70
2023/08/26 11:10:58;;;;;;;5.40;4.07;;;31.00;50.50;;;;;;5009148;28;20057;-71
2023/08/26 11:13:24;;;;;;;7.82;4.78;;;31.00;49.90;;;;;;5009497;28;20044;-70
2023/08/26 11:15:51;;;;;;;7.60;4.35;;;31.00;49.40;;;;;;5009412;28;20040;-70
2023/08/26 11:18:20;;;;;;;4.43;3.97;;;30.90;48.50;;;;;;5009062;28;20128;-70
2023/08/26 11:20:47;;;;;;;7.85;3.83;;;30.80;48.00;;;;;;5009076;28;20069;-70
2023/08/26 11:23:13;;;;;;;5.15;2.97;;;31.00;48.10;;;;;;5009200;28;20082;-70
2023/08/26 11:25:39;;;;;;;7.55;3.65;;;30.90;47.40;;;;;;5024119;28;20049;-70
2023/08/26 11:28:07;;;;;;;5.35;3.55;;;30.90;47.10;;;;;;5028844;28;20041;-70
2023/08/26 11:30:42;;;;;;;4.68;4.10;;;31.00;47.30;;;;;;4995298;28;20057;-70
2023/08/26 11:33:15;;;;;;;7.72;4.20;;;31.00;47.00;;;;;;5028775;28;20049;-70
2023/08/26 11:35:41;;;;;;;5.22;3.92;;;31.00;46.80;;;;;;5028852;28;20116;-71
2023/08/26 11:38:08;;;;;;;7.35;3.80;;;30.80;46.20;;;;;;5067919;28;20090;-72
2023/08/26 11:40:37;;;;;;;5.00;4.03;;;31.00;47.80;;;;;;5070919;28;20029;-70
2023/08/26 11:43:14;;;;;;;4.93;3.72;;;30.90;46.70;;;;;;5071319;28;20020;-71
2023/08/26 11:45:42;;;;;;;5.93;3.65;;;30.90;46.10;;;;;;5071027;28;20377;-72
2023/08/26 11:48:11;;;;;;;7.25;3.90;;;30.90;45.70;;;;;;5070635;28;20052;-72
2023/08/26 11:50:38;;;;;;;6.55;3.55;;;30.90;45.30;;;;;;5074724;28;20560;-71
2023/08/26 11:53:04;;;;;;;4.18;3.20;;;30.70;45.00;;;;;;5075038;28;20036;-72
2023/08/26 11:55:34;;;;;;;4.05;3.08;;;30.80;44.80;;;;;;5075347;28;20067;-71
2023/08/26 11:58:02;;;;;;;6.07;3.53;;;30.90;44.60;;;;;;5065610;28;20029;-72
2023/08/26 12:00:28;;;;;;;5.43;3.08;;;30.80;44.40;;;;;;5054705;28;20091;-72
2023/08/26 12:03:03;;;;;;;5.22;2.92;;;30.90;44.20;;;;;;5055086;28;20056;-73
2023/08/26 12:05:52;;;;;;;3.85;3.25;;;30.80;44.10;;;;;;5054415;28;20036;-74
2023/08/26 12:08:21;;;;;;;6.57;3.50;;;30.80;44.00;;;;;;5052313;28;20033;-73
2023/08/26 12:10:52;;;;;;;3.40;2.90;;;30.70;43.80;;;;;;5051767;28;20762;-73
2023/08/26 12:13:19;;;;;;;3.55;2.90;;;30.80;43.70;;;;;;5052903;28;20033;-71
2023/08/26 12:15:45;;;;;;;6.20;3.97;;;30.70;43.60;;;;;;5035960;28;20044;-71
2023/08/26 12:18:12;;;;;;;7.10;3.70;;;30.90;43.50;;;;;;5052239;28;20088;-72
2023/08/26 12:20:40;;;;;;;5.13;3.15;;;30.70;43.40;;;;;;5054272;28;20033;-71
2023/08/26 12:23:07;;;;;;;4.28;3.15;;;30.70;43.40;;;;;;5052755;28;20042;-70
2023/08/26 12:25:35;;;;;;;4.75;3.20;;;30.70;43.60;;;;;;5053252;28;20021;-71
2023/08/26 12:28:22;;;;;;;4.15;2.97;;;30.60;44.00;;;;;;5053626;28;20040;-73
2023/08/26 12:30:48;;;;;;;5.78;3.50;;;30.70;44.50;;;;;;5052733;28;20500;-71
2023/08/26 12:33:14;;;;;;;4.85;3.58;;;30.50;44.70;;;;;;5054112;28;20090;-72
2023/08/26 12:35:40;;;;;;;4.35;3.17;;;30.60;44.90;;;;;;5053231;28;20416;-73
2023/08/26 12:38:07;;;;;;;4.95;2.95;;;30.60;45.10;;;;;;5052702;28;20045;-72
2023/08/26 12:40:35;;;;;;;4.93;3.10;;;30.60;46.00;;;;;;5054047;28;20029;-73
2023/08/26 12:43:04;;;;;;;4.25;2.75;;;30.70;46.70;;;;;;5054420;28;20513;-72
2023/08/26 12:45:35;;;;;;;3.00;2.70;;;30.50;46.60;;;;;;5052842;28;20040;-72
2023/08/26 12:48:01;;;;;;;6.40;3.00;;;30.60;46.60;;;;;;5052692;28;20081;-71